sensor_id;sensor_type;location;lat;lon;timestamp;temperature;humidity
67050;DHT22;53955;52.442;13.284;2023-07-30T00:01:50;20.80;83.70
67050;DHT22;53955;52.442;13.284;2023-07-30T00:04:17;20.70;83.60
67050;DHT22;53955;52.442;13.284;2023-07-30T00:06:43;20.70;83.60
67050;DHT22;53955;52.442;13.284;2023-07-30T00:09:11;20.60;83.10
67050;DHT22;53955;52.442;13.284;2023-07-30T00:11:38;20.60;83.50
67050;DHT22;53955;52.442;13.284;2023-07-30T00:14:05;20.70;83.40
67050;DHT22;53955;52.442;13.284;2023-07-30T00:16:31;20.70;83.10
67050;DHT22;53955;52.442;13.284;2023-07-30T00:18:58;20.70;83.30
67050;DHT22;53955;52.442;13.284;2023-07-30T00:21:24;20.70;83.30
67050;DHT22;53955;52.442;13.284;2023-07-30T00:23:51;20.60;83.40
67050;DHT22;53955;52.442;13.284;2023-07-30T00:26:19;20.60;83.50
67050;DHT22;53955;52.442;13.284;2023-07-30T00:28:46;20.60;83.40
67050;DHT22;53955;52.442;13.284;2023-07-30T00:31:13;20.50;83.30
67050;DHT22;53955;52.442;13.284;2023-07-30T00:33:39;20.50;83.60
67050;DHT22;53955;52.442;13.284;2023-07-30T00:36:06;20.60;83.60
67050;DHT22;53955;52.442;13.284;2023-07-30T00:38:33;20.40;83.70
67050;DHT22;53955;52.442;13.284;2023-07-30T00:40:59;20.50;83.90
67050;DHT22;53955;52.442;13.284;2023-07-30T00:43:27;20.40;83.30
67050;DHT22;53955;52.442;13.284;2023-07-30T00:45:54;20.40;83.60
67050;DHT22;53955;52.442;13.284;2023-07-30T00:48:21;20.40;83.00
67050;DHT22;53955;52.442;13.284;2023-07-30T00:50:48;20.30;82.90
67050;DHT22;53955;52.442;13.284;2023-07-30T00:53:14;20.30;83.10
67050;DHT22;53955;52.442;13.284;2023-07-30T00:55:43;20.30;83.20
67050;DHT22;53955;52.442;13.284;2023-07-30T00:58:10;20.30;83.60
67050;DHT22;53955;52.442;13.284;2023-07-30T01:00:39;20.30;83.40
67050;DHT22;53955;52.442;13.284;2023-07-30T01:03:05;20.20;83.80
67050;DHT22;53955;52.442;13.284;2023-07-30T01:05:33;20.30;83.60
67050;DHT22;53955;52.442;13.284;2023-07-30T01:07:59;20.30;83.50
67050;DHT22;53955;52.442;13.284;2023-07-30T01:10:26;20.30;83.20
67050;DHT22;53955;52.442;13.284;2023-07-30T01:12:54;20.20;83.40
67050;DHT22;53955;52.442;13.284;2023-07-30T01:15:21;20.20;83.50
67050;DHT22;53955;52.442;13.284;2023-07-30T01:17:49;20.10;83.20
67050;DHT22;53955;52.442;13.284;2023-07-30T01:20:15;20.30;83.50
67050;DHT22;53955;52.442;13.284;2023-07-30T01:22:43;20.20;83.20
67050;DHT22;53955;52.442;13.284;2023-07-30T01:25:10;20.30;83.50
67050;DHT22;53955;52.442;13.284;2023-07-30T01:27:39;20.10;83.40
67050;DHT22;53955;52.442;13.284;2023-07-30T01:30:12;20.20;83.40
67050;DHT22;53955;52.442;13.284;2023-07-30T01:32:40;20.10;83.30
67050;DHT22;53955;52.442;13.284;2023-07-30T01:35:08;20.10;83.40
67050;DHT22;53955;52.442;13.284;2023-07-30T01:37:36;20.10;83.70
67050;DHT22;53955;52.442;13.284;2023-07-30T01:40:06;20.10;83.50
67050;DHT22;53955;52.442;13.284;2023-07-30T01:42:33;20.10;83.50
67050;DHT22;53955;52.442;13.284;2023-07-30T01:45:00;20.10;83.10
67050;DHT22;53955;52.442;13.284;2023-07-30T01:47:27;20.10;83.10
67050;DHT22;53955;52.442;13.284;2023-07-30T01:49:53;20.00;82.90
67050;DHT22;53955;52.442;13.284;2023-07-30T01:52:20;20.00;82.60
67050;DHT22;53955;52.442;13.284;2023-07-30T01:54:46;20.00;83.00
67050;DHT22;53955;52.442;13.284;2023-07-30T01:57:14;19.90;83.00
67050;DHT22;53955;52.442;13.284;2023-07-30T01:59:41;19.90;83.10
67050;DHT22;53955;52.442;13.284;2023-07-30T02:02:07;19.90;82.80
67050;DHT22;53955;52.442;13.284;2023-07-30T02:04:34;19.90;82.70
67050;DHT22;53955;52.442;13.284;2023-07-30T02:07:01;19.80;83.00
67050;DHT22;53955;52.442;13.284;2023-07-30T02:09:27;19.70;83.20
67050;DHT22;53955;52.442;13.284;2023-07-30T02:11:54;19.80;82.70
67050;DHT22;53955;52.442;13.284;2023-07-30T02:14:22;19.70;83.20
67050;DHT22;53955;52.442;13.284;2023-07-30T02:16:48;19.70;83.30
67050;DHT22;53955;52.442;13.284;2023-07-30T02:19:15;19.60;83.30
67050;DHT22;53955;52.442;13.284;2023-07-30T02:21:41;19.70;83.40
67050;DHT22;53955;52.442;13.284;2023-07-30T02:24:09;19.60;83.80
67050;DHT22;53955;52.442;13.284;2023-07-30T02:26:37;19.70;83.70
67050;DHT22;53955;52.442;13.284;2023-07-30T02:29:03;19.70;83.60
67050;DHT22;53955;52.442;13.284;2023-07-30T02:31:31;19.60;83.30
67050;DHT22;53955;52.442;13.284;2023-07-30T02:33:58;19.70;83.90
67050;DHT22;53955;52.442;13.284;2023-07-30T02:36:25;19.60;83.70
67050;DHT22;53955;52.442;13.284;2023-07-30T02:38:51;19.70;83.40
67050;DHT22;53955;52.442;13.284;2023-07-30T02:41:18;19.70;83.30
67050;DHT22;53955;52.442;13.284;2023-07-30T02:43:44;19.70;83.40
67050;DHT22;53955;52.442;13.284;2023-07-30T02:46:11;19.70;83.30
67050;DHT22;53955;52.442;13.284;2023-07-30T02:48:39;19.70;83.20
67050;DHT22;53955;52.442;13.284;2023-07-30T02:51:05;19.70;83.30
67050;DHT22;53955;52.442;13.284;2023-07-30T02:53:32;19.70;83.20
67050;DHT22;53955;52.442;13.284;2023-07-30T02:55:59;19.60;82.80
67050;DHT22;53955;52.442;13.284;2023-07-30T02:58:25;19.60;83.10
67050;DHT22;53955;52.442;13.284;2023-07-30T03:00:52;19.60;83.30
67050;DHT22;53955;52.442;13.284;2023-07-30T03:03:18;19.60;83.00
67050;DHT22;53955;52.442;13.284;2023-07-30T03:05:46;19.50;83.00
67050;DHT22;53955;52.442;13.284;2023-07-30T03:08:13;19.50;83.00
67050;DHT22;53955;52.442;13.284;2023-07-30T03:10:39;19.50;83.30
67050;DHT22;53955;52.442;13.284;2023-07-30T03:13:06;19.50;83.00
67050;DHT22;53955;52.442;13.284;2023-07-30T03:15:33;19.40;82.90
67050;DHT22;53955;52.442;13.284;2023-07-30T03:17:59;19.50;83.10
67050;DHT22;53955;52.442;13.284;2023-07-30T03:20:26;19.40;83.20
67050;DHT22;53955;52.442;13.284;2023-07-30T03:22:54;19.40;82.60
67050;DHT22;53955;52.442;13.284;2023-07-30T03:25:21;19.50;82.90
67050;DHT22;53955;52.442;13.284;2023-07-30T03:27:47;19.50;82.90
67050;DHT22;53955;52.442;13.284;2023-07-30T03:30:14;19.40;83.10
67050;DHT22;53955;52.442;13.284;2023-07-30T03:32:40;19.40;82.90
67050;DHT22;53955;52.442;13.284;2023-07-30T03:35:07;19.40;82.90
67050;DHT22;53955;52.442;13.284;2023-07-30T03:37:34;19.50;83.00
67050;DHT22;53955;52.442;13.284;2023-07-30T03:40:02;19.50;83.20
67050;DHT22;53955;52.442;13.284;2023-07-30T03:42:29;19.60;82.80
67050;DHT22;53955;52.442;13.284;2023-07-30T03:44:56;19.60;82.80
67050;DHT22;53955;52.442;13.284;2023-07-30T03:47:22;19.70;82.50
67050;DHT22;53955;52.442;13.284;2023-07-30T03:49:49;19.60;82.30
67050;DHT22;53955;52.442;13.284;2023-07-30T03:52:15;19.60;82.10
67050;DHT22;53955;52.442;13.284;2023-07-30T03:54:42;19.70;82.10
67050;DHT22;53955;52.442;13.284;2023-07-30T03:57:10;19.70;81.80
67050;DHT22;53955;52.442;13.284;2023-07-30T03:59:37;19.60;81.80
67050;DHT22;53955;52.442;13.284;2023-07-30T04:02:04;19.80;81.40
67050;DHT22;53955;52.442;13.284;2023-07-30T04:04:31;19.70;81.30
67050;DHT22;53955;52.442;13.284;2023-07-30T04:06:57;19.80;81.20
67050;DHT22;53955;52.442;13.284;2023-07-30T04:09:24;19.80;81.10
67050;DHT22;53955;52.442;13.284;2023-07-30T04:11:50;19.90;81.40
67050;DHT22;53955;52.442;13.284;2023-07-30T04:14:19;20.00;81.40
67050;DHT22;53955;52.442;13.284;2023-07-30T04:16:45;20.00;80.40
67050;DHT22;53955;52.442;13.284;2023-07-30T04:19:12;19.90;80.40
67050;DHT22;53955;52.442;13.284;2023-07-30T04:21:39;20.00;80.60
67050;DHT22;53955;52.442;13.284;2023-07-30T04:24:05;20.00;80.50
67050;DHT22;53955;52.442;13.284;2023-07-30T04:26:32;20.10;79.90
67050;DHT22;53955;52.442;13.284;2023-07-30T04:28:59;20.10;80.70
67050;DHT22;53955;52.442;13.284;2023-07-30T04:31:27;20.10;80.00
67050;DHT22;53955;52.442;13.284;2023-07-30T04:33:53;20.20;79.80
67050;DHT22;53955;52.442;13.284;2023-07-30T04:36:20;20.20;79.50
67050;DHT22;53955;52.442;13.284;2023-07-30T04:38:47;20.40;79.30
67050;DHT22;53955;52.442;13.284;2023-07-30T04:41:13;20.50;78.30
67050;DHT22;53955;52.442;13.284;2023-07-30T04:43:40;20.70;78.80
67050;DHT22;53955;52.442;13.284;2023-07-30T04:46:06;20.70;78.80
67050;DHT22;53955;52.442;13.284;2023-07-30T04:48:34;20.90;76.10
67050;DHT22;53955;52.442;13.284;2023-07-30T04:51:01;21.30;75.30
67050;DHT22;53955;52.442;13.284;2023-07-30T04:53:27;21.50;74.60
67050;DHT22;53955;52.442;13.284;2023-07-30T04:55:57;21.60;74.00
67050;DHT22;53955;52.442;13.284;2023-07-30T04:58:24;21.80;74.70
67050;DHT22;53955;52.442;13.284;2023-07-30T05:00:50;21.80;74.20
67050;DHT22;53955;52.442;13.284;2023-07-30T05:03:17;22.50;72.50
67050;DHT22;53955;52.442;13.284;2023-07-30T05:05:45;23.40;68.30
67050;DHT22;53955;52.442;13.284;2023-07-30T05:08:11;24.40;63.20
67050;DHT22;53955;52.442;13.284;2023-07-30T05:10:38;25.40;58.60
67050;DHT22;53955;52.442;13.284;2023-07-30T05:13:05;26.40;53.50
67050;DHT22;53955;52.442;13.284;2023-07-30T05:15:32;27.50;50.60
67050;DHT22;53955;52.442;13.284;2023-07-30T05:17:58;28.40;47.90
67050;DHT22;53955;52.442;13.284;2023-07-30T05:20:25;28.70;45.90
67050;DHT22;53955;52.442;13.284;2023-07-30T05:22:53;28.50;46.50
67050;DHT22;53955;52.442;13.284;2023-07-30T05:25:19;28.60;46.30
67050;DHT22;53955;52.442;13.284;2023-07-30T05:27:46;29.20;44.10
67050;DHT22;53955;52.442;13.284;2023-07-30T05:30:12;29.70;42.00
67050;DHT22;53955;52.442;13.284;2023-07-30T05:32:39;30.50;41.50
67050;DHT22;53955;52.442;13.284;2023-07-30T05:35:06;30.60;40.90
67050;DHT22;53955;52.442;13.284;2023-07-30T05:37:33;30.90;40.20
67050;DHT22;53955;52.442;13.284;2023-07-30T05:40:01;31.10;39.50
67050;DHT22;53955;52.442;13.284;2023-07-30T05:42:28;31.10;39.50
67050;DHT22;53955;52.442;13.284;2023-07-30T05:44:55;31.00;39.60
67050;DHT22;53955;52.442;13.284;2023-07-30T05:47:21;31.30;39.30
67050;DHT22;53955;52.442;13.284;2023-07-30T05:49:48;31.40;38.80
67050;DHT22;53955;52.442;13.284;2023-07-30T05:52:16;31.60;38.00
67050;DHT22;53955;52.442;13.284;2023-07-30T05:54:42;31.60;37.90
67050;DHT22;53955;52.442;13.284;2023-07-30T05:57:10;31.70;37.50
67050;DHT22;53955;52.442;13.284;2023-07-30T05:59:37;31.90;36.70
67050;DHT22;53955;52.442;13.284;2023-07-30T06:02:04;32.10;36.60
67050;DHT22;53955;52.442;13.284;2023-07-30T06:04:31;31.90;36.30
67050;DHT22;53955;52.442;13.284;2023-07-30T06:06:59;31.40;37.60
67050;DHT22;53955;52.442;13.284;2023-07-30T06:09:25;29.90;40.40
67050;DHT22;53955;52.442;13.284;2023-07-30T06:11:52;28.80;43.60
67050;DHT22;53955;52.442;13.284;2023-07-30T06:14:20;27.70;45.80
67050;DHT22;53955;52.442;13.284;2023-07-30T06:16:47;26.90;47.60
67050;DHT22;53955;52.442;13.284;2023-07-30T06:19:13;26.00;51.60
67050;DHT22;53955;52.442;13.284;2023-07-30T06:21:40;25.40;53.90
67050;DHT22;53955;52.442;13.284;2023-07-30T06:24:06;24.70;57.00
67050;DHT22;53955;52.442;13.284;2023-07-30T06:26:33;24.60;60.10
67050;DHT22;53955;52.442;13.284;2023-07-30T06:29:00;24.70;59.90
67050;DHT22;53955;52.442;13.284;2023-07-30T06:31:35;24.90;59.30
67050;DHT22;53955;52.442;13.284;2023-07-30T06:34:01;26.90;51.50
67050;DHT22;53955;52.442;13.284;2023-07-30T06:36:28;28.60;46.00
67050;DHT22;53955;52.442;13.284;2023-07-30T06:38:55;28.40;46.10
67050;DHT22;53955;52.442;13.284;2023-07-30T06:41:22;28.00;48.20
67050;DHT22;53955;52.442;13.284;2023-07-30T06:43:52;27.10;50.50
67050;DHT22;53955;52.442;13.284;2023-07-30T06:46:27;26.10;54.50
67050;DHT22;53955;52.442;13.284;2023-07-30T06:48:55;25.60;55.30
67050;DHT22;53955;52.442;13.284;2023-07-30T06:51:24;25.40;56.00
67050;DHT22;53955;52.442;13.284;2023-07-30T06:53:51;25.50;56.90
67050;DHT22;53955;52.442;13.284;2023-07-30T06:56:17;25.70;56.60
67050;DHT22;53955;52.442;13.284;2023-07-30T06:58:44;26.00;57.00
67050;DHT22;53955;52.442;13.284;2023-07-30T07:01:11;26.30;54.10
67050;DHT22;53955;52.442;13.284;2023-07-30T07:03:39;26.60;53.40
67050;DHT22;53955;52.442;13.284;2023-07-30T07:06:05;27.10;52.80
67050;DHT22;53955;52.442;13.284;2023-07-30T07:08:32;27.50;51.20
67050;DHT22;53955;52.442;13.284;2023-07-30T07:10:58;27.50;50.20
67050;DHT22;53955;52.442;13.284;2023-07-30T07:13:25;27.50;48.20
67050;DHT22;53955;52.442;13.284;2023-07-30T07:15:51;27.50;49.80
67050;DHT22;53955;52.442;13.284;2023-07-30T07:18:18;27.60;49.10
67050;DHT22;53955;52.442;13.284;2023-07-30T07:20:46;27.70;48.40
67050;DHT22;53955;52.442;13.284;2023-07-30T07:23:13;27.80;49.90
67050;DHT22;53955;52.442;13.284;2023-07-30T07:25:39;27.90;49.80
67050;DHT22;53955;52.442;13.284;2023-07-30T07:28:06;28.00;49.50
67050;DHT22;53955;52.442;13.284;2023-07-30T07:30:34;28.10;48.40
67050;DHT22;53955;52.442;13.284;2023-07-30T07:33:01;28.30;47.50
67050;DHT22;53955;52.442;13.284;2023-07-30T07:35:27;28.50;46.10
67050;DHT22;53955;52.442;13.284;2023-07-30T07:37:55;28.30;47.10
67050;DHT22;53955;52.442;13.284;2023-07-30T07:40:22;28.40;46.90
67050;DHT22;53955;52.442;13.284;2023-07-30T07:42:49;28.50;46.20
67050;DHT22;53955;52.442;13.284;2023-07-30T07:45:15;28.60;46.70
67050;DHT22;53955;52.442;13.284;2023-07-30T07:47:42;28.70;45.30
67050;DHT22;53955;52.442;13.284;2023-07-30T07:50:09;28.80;45.70
67050;DHT22;53955;52.442;13.284;2023-07-30T07:52:35;28.90;45.30
67050;DHT22;53955;52.442;13.284;2023-07-30T07:55:04;28.80;45.80
67050;DHT22;53955;52.442;13.284;2023-07-30T07:57:31;28.90;45.80
67050;DHT22;53955;52.442;13.284;2023-07-30T07:59:57;28.70;45.30
67050;DHT22;53955;52.442;13.284;2023-07-30T08:02:24;28.30;47.00
67050;DHT22;53955;52.442;13.284;2023-07-30T08:04:50;28.10;46.20
67050;DHT22;53955;52.442;13.284;2023-07-30T08:07:17;28.10;47.50
67050;DHT22;53955;52.442;13.284;2023-07-30T08:09:43;28.10;47.00
67050;DHT22;53955;52.442;13.284;2023-07-30T08:12:11;28.10;45.80
67050;DHT22;53955;52.442;13.284;2023-07-30T08:14:39;28.30;45.60
67050;DHT22;53955;52.442;13.284;2023-07-30T08:17:06;28.40;45.40
67050;DHT22;53955;52.442;13.284;2023-07-30T08:19:33;28.20;45.20
67050;DHT22;53955;52.442;13.284;2023-07-30T08:21:59;28.00;44.90
67050;DHT22;53955;52.442;13.284;2023-07-30T08:24:26;27.80;45.10
67050;DHT22;53955;52.442;13.284;2023-07-30T08:26:52;27.90;45.30
67050;DHT22;53955;52.442;13.284;2023-07-30T08:29:20;27.90;45.90
67050;DHT22;53955;52.442;13.284;2023-07-30T08:31:47;27.90;45.20
67050;DHT22;53955;52.442;13.284;2023-07-30T08:34:14;28.00;44.90
67050;DHT22;53955;52.442;13.284;2023-07-30T08:36:40;27.90;45.50
67050;DHT22;53955;52.442;13.284;2023-07-30T08:39:07;28.10;44.40
67050;DHT22;53955;52.442;13.284;2023-07-30T08:41:34;28.20;43.10
67050;DHT22;53955;52.442;13.284;2023-07-30T08:44:01;28.10;42.80
67050;DHT22;53955;52.442;13.284;2023-07-30T08:46:29;27.90;44.30
67050;DHT22;53955;52.442;13.284;2023-07-30T08:48:55;27.80;43.90
67050;DHT22;53955;52.442;13.284;2023-07-30T08:51:23;27.80;44.20
67050;DHT22;53955;52.442;13.284;2023-07-30T08:53:50;27.70;45.00
67050;DHT22;53955;52.442;13.284;2023-07-30T08:56:18;27.60;45.00
67050;DHT22;53955;52.442;13.284;2023-07-30T08:58:45;27.70;44.10
67050;DHT22;53955;52.442;13.284;2023-07-30T09:01:12;27.50;43.20
67050;DHT22;53955;52.442;13.284;2023-07-30T09:03:42;27.40;44.30
67050;DHT22;53955;52.442;13.284;2023-07-30T09:06:08;27.40;44.00
67050;DHT22;53955;52.442;13.284;2023-07-30T09:08:35;27.40;43.80
67050;DHT22;53955;52.442;13.284;2023-07-30T09:11:08;27.20;43.40
67050;DHT22;53955;52.442;13.284;2023-07-30T09:13:37;27.10;43.80
67050;DHT22;53955;52.442;13.284;2023-07-30T09:16:08;26.70;44.80
67050;DHT22;53955;52.442;13.284;2023-07-30T09:18:39;26.70;45.30
67050;DHT22;53955;52.442;13.284;2023-07-30T09:21:07;26.90;44.90
67050;DHT22;53955;52.442;13.284;2023-07-30T09:23:39;27.10;44.00
67050;DHT22;53955;52.442;13.284;2023-07-30T09:26:06;27.30;43.20
67050;DHT22;53955;52.442;13.284;2023-07-30T09:28:32;27.40;41.50
67050;DHT22;53955;52.442;13.284;2023-07-30T09:31:02;27.80;41.90
67050;DHT22;53955;52.442;13.284;2023-07-30T09:33:31;28.10;42.30
67050;DHT22;53955;52.442;13.284;2023-07-30T09:35:57;28.30;40.10
67050;DHT22;53955;52.442;13.284;2023-07-30T09:38:25;28.10;40.00
67050;DHT22;53955;52.442;13.284;2023-07-30T09:41:00;27.80;40.00
67050;DHT22;53955;52.442;13.284;2023-07-30T09:43:28;27.40;40.70
67050;DHT22;53955;52.442;13.284;2023-07-30T09:46:01;27.20;41.90
67050;DHT22;53955;52.442;13.284;2023-07-30T09:50:56;27.30;42.00
67050;DHT22;53955;52.442;13.284;2023-07-30T09:53:26;27.50;40.60
67050;DHT22;53955;52.442;13.284;2023-07-30T09:55:54;27.60;38.50
67050;DHT22;53955;52.442;13.284;2023-07-30T09:58:21;27.60;40.00
67050;DHT22;53955;52.442;13.284;2023-07-30T10:03:34;27.60;38.70
67050;DHT22;53955;52.442;13.284;2023-07-30T10:11:08;27.30;38.30
67050;DHT22;53955;52.442;13.284;2023-07-30T10:13:37;27.50;36.70
67050;DHT22;53955;52.442;13.284;2023-07-30T10:16:09;27.40;35.80
67050;DHT22;53955;52.442;13.284;2023-07-30T10:18:38;27.80;36.30
67050;DHT22;53955;52.442;13.284;2023-07-30T10:21:07;27.90;35.30
67050;DHT22;53955;52.442;13.284;2023-07-30T10:23:34;28.00;36.60
67050;DHT22;53955;52.442;13.284;2023-07-30T10:26:10;28.00;36.70
67050;DHT22;53955;52.442;13.284;2023-07-30T10:28:36;27.80;36.70
67050;DHT22;53955;52.442;13.284;2023-07-30T10:31:05;27.80;36.60
67050;DHT22;53955;52.442;13.284;2023-07-30T10:36:13;27.90;36.60
67050;DHT22;53955;52.442;13.284;2023-07-30T10:38:43;28.20;35.40
67050;DHT22;53955;52.442;13.284;2023-07-30T10:41:13;28.10;36.20
67050;DHT22;53955;52.442;13.284;2023-07-30T10:43:43;28.00;36.40
67050;DHT22;53955;52.442;13.284;2023-07-30T10:46:11;28.00;37.00
67050;DHT22;53955;52.442;13.284;2023-07-30T10:48:39;28.10;35.20
67050;DHT22;53955;52.442;13.284;2023-07-30T10:56:09;28.20;35.20
67050;DHT22;53955;52.442;13.284;2023-07-30T11:01:13;28.10;34.40
67050;DHT22;53955;52.442;13.284;2023-07-30T11:03:39;28.20;35.20
67050;DHT22;53955;52.442;13.284;2023-07-30T11:06:06;28.30;33.20
67050;DHT22;53955;52.442;13.284;2023-07-30T11:08:34;28.20;33.40
67050;DHT22;53955;52.442;13.284;2023-07-30T11:11:01;28.30;33.80
67050;DHT22;53955;52.442;13.284;2023-07-30T11:13:28;28.20;32.30
67050;DHT22;53955;52.442;13.284;2023-07-30T11:15:55;28.20;31.60
67050;DHT22;53955;52.442;13.284;2023-07-30T11:23:41;28.30;32.30
67050;DHT22;53955;52.442;13.284;2023-07-30T11:28:37;27.90;31.70
67050;DHT22;53955;52.442;13.284;2023-07-30T11:31:06;27.90;33.20
67050;DHT22;53955;52.442;13.284;2023-07-30T11:33:34;28.00;33.20
67050;DHT22;53955;52.442;13.284;2023-07-30T11:36:02;28.00;32.60
67050;DHT22;53955;52.442;13.284;2023-07-30T11:41:07;28.00;32.00
67050;DHT22;53955;52.442;13.284;2023-07-30T11:43:37;28.00;32.40
67050;DHT22;53955;52.442;13.284;2023-07-30T11:46:08;28.20;31.60
67050;DHT22;53955;52.442;13.284;2023-07-30T11:51:06;28.30;32.30
67050;DHT22;53955;52.442;13.284;2023-07-30T11:56:01;28.60;31.50
67050;DHT22;53955;52.442;13.284;2023-07-30T11:58:29;28.60;31.80
67050;DHT22;53955;52.442;13.284;2023-07-30T12:00:57;28.60;31.50
67050;DHT22;53955;52.442;13.284;2023-07-30T12:03:24;28.50;30.70
67050;DHT22;53955;52.442;13.284;2023-07-30T12:05:50;28.50;30.30
67050;DHT22;53955;52.442;13.284;2023-07-30T12:08:17;28.50;29.90
67050;DHT22;53955;52.442;13.284;2023-07-30T12:10:46;28.40;29.10
67050;DHT22;53955;52.442;13.284;2023-07-30T12:13:15;28.40;30.40
67050;DHT22;53955;52.442;13.284;2023-07-30T12:15:44;28.40;31.70
67050;DHT22;53955;52.442;13.284;2023-07-30T12:18:16;28.10;31.80
67050;DHT22;53955;52.442;13.284;2023-07-30T12:21:04;28.00;31.70
67050;DHT22;53955;52.442;13.284;2023-07-30T12:28:41;28.20;32.60
67050;DHT22;53955;52.442;13.284;2023-07-30T12:31:09;28.40;31.30
67050;DHT22;53955;52.442;13.284;2023-07-30T12:33:36;28.40;31.60
67050;DHT22;53955;52.442;13.284;2023-07-30T12:36:03;28.50;31.30
67050;DHT22;53955;52.442;13.284;2023-07-30T12:38:29;28.50;32.00
67050;DHT22;53955;52.442;13.284;2023-07-30T12:40:56;28.50;29.60
67050;DHT22;53955;52.442;13.284;2023-07-30T12:43:22;28.20;29.90
67050;DHT22;53955;52.442;13.284;2023-07-30T12:45:49;28.30;30.10
67050;DHT22;53955;52.442;13.284;2023-07-30T12:48:17;28.10;30.40
67050;DHT22;53955;52.442;13.284;2023-07-30T12:50:44;28.10;29.60
67050;DHT22;53955;52.442;13.284;2023-07-30T12:53:14;28.10;28.70
67050;DHT22;53955;52.442;13.284;2023-07-30T12:55:40;27.90;28.80
67050;DHT22;53955;52.442;13.284;2023-07-30T13:03:19;28.00;30.30
67050;DHT22;53955;52.442;13.284;2023-07-30T13:08:28;27.90;29.90
67050;DHT22;53955;52.442;13.284;2023-07-30T13:10:54;27.90;30.70
67050;DHT22;53955;52.442;13.284;2023-07-30T13:13:21;28.00;29.10
67050;DHT22;53955;52.442;13.284;2023-07-30T13:18:17;28.00;28.20
67050;DHT22;53955;52.442;13.284;2023-07-30T13:28:16;27.80;28.40
67050;DHT22;53955;52.442;13.284;2023-07-30T13:30:43;27.80;29.10
67050;DHT22;53955;52.442;13.284;2023-07-30T13:33:10;27.70;27.90
67050;DHT22;53955;52.442;13.284;2023-07-30T13:40:47;27.60;27.70
67050;DHT22;53955;52.442;13.284;2023-07-30T13:51:06;27.30;26.70
67050;DHT22;53955;52.442;13.284;2023-07-30T13:53:36;27.30;27.50
67050;DHT22;53955;52.442;13.284;2023-07-30T13:58:34;27.10;27.60
67050;DHT22;53955;52.442;13.284;2023-07-30T14:01:00;27.20;27.20
67050;DHT22;53955;52.442;13.284;2023-07-30T14:03:27;27.10;27.50
67050;DHT22;53955;52.442;13.284;2023-07-30T14:05:54;26.90;27.50
67050;DHT22;53955;52.442;13.284;2023-07-30T14:08:22;26.90;28.10
67050;DHT22;53955;52.442;13.284;2023-07-30T14:10:48;26.80;28.00
67050;DHT22;53955;52.442;13.284;2023-07-30T14:13:15;26.70;27.90
67050;DHT22;53955;52.442;13.284;2023-07-30T14:15:41;26.70;28.80
67050;DHT22;53955;52.442;13.284;2023-07-30T14:20:43;26.50;28.60
67050;DHT22;53955;52.442;13.284;2023-07-30T14:23:09;26.30;30.90
67050;DHT22;53955;52.442;13.284;2023-07-30T14:28:13;26.20;32.90
67050;DHT22;53955;52.442;13.284;2023-07-30T14:30:40;26.00;34.60
67050;DHT22;53955;52.442;13.284;2023-07-30T14:38:13;25.50;38.20
67050;DHT22;53955;52.442;13.284;2023-07-30T14:45:52;24.90;40.90
67050;DHT22;53955;52.442;13.284;2023-07-30T14:48:19;24.70;41.00
67050;DHT22;53955;52.442;13.284;2023-07-30T14:50:45;24.70;41.50
67050;DHT22;53955;52.442;13.284;2023-07-30T14:53:12;24.50;42.30
67050;DHT22;53955;52.442;13.284;2023-07-30T14:55:38;24.40;45.40
67050;DHT22;53955;52.442;13.284;2023-07-30T14:58:05;24.30;46.70
67050;DHT22;53955;52.442;13.284;2023-07-30T15:00:31;24.20;46.70
67050;DHT22;53955;52.442;13.284;2023-07-30T15:10:40;24.00;50.60
67050;DHT22;53955;52.442;13.284;2023-07-30T15:13:07;23.90;52.50
67050;DHT22;53955;52.442;13.284;2023-07-30T15:15:33;23.80;53.30
67050;DHT22;53955;52.442;13.284;2023-07-30T15:18:00;23.90;52.80
67050;DHT22;53955;52.442;13.284;2023-07-30T15:20:26;23.70;54.00
67050;DHT22;53955;52.442;13.284;2023-07-30T15:22:53;23.80;54.20
67050;DHT22;53955;52.442;13.284;2023-07-30T15:25:20;23.90;53.60
67050;DHT22;53955;52.442;13.284;2023-07-30T15:27:48;24.00;52.60
67050;DHT22;53955;52.442;13.284;2023-07-30T15:30:14;24.00;53.30
67050;DHT22;53955;52.442;13.284;2023-07-30T15:32:42;24.10;53.40
67050;DHT22;53955;52.442;13.284;2023-07-30T15:35:09;24.20;54.00
67050;DHT22;53955;52.442;13.284;2023-07-30T15:37:36;24.20;53.50
67050;DHT22;53955;52.442;13.284;2023-07-30T15:40:04;24.30;53.30
67050;DHT22;53955;52.442;13.284;2023-07-30T15:42:31;24.30;52.20
67050;DHT22;53955;52.442;13.284;2023-07-30T15:44:59;24.20;51.10
67050;DHT22;53955;52.442;13.284;2023-07-30T15:47:25;24.10;53.10
67050;DHT22;53955;52.442;13.284;2023-07-30T15:49:52;24.20;52.50
67050;DHT22;53955;52.442;13.284;2023-07-30T15:52:18;24.30;52.60
67050;DHT22;53955;52.442;13.284;2023-07-30T15:54:45;24.40;53.90
67050;DHT22;53955;52.442;13.284;2023-07-30T15:57:12;24.30;53.40
67050;DHT22;53955;52.442;13.284;2023-07-30T15:59:44;24.30;53.00
67050;DHT22;53955;52.442;13.284;2023-07-30T16:02:12;24.40;52.70
67050;DHT22;53955;52.442;13.284;2023-07-30T16:04:39;24.40;52.00
67050;DHT22;53955;52.442;13.284;2023-07-30T16:07:05;24.30;52.20
67050;DHT22;53955;52.442;13.284;2023-07-30T16:09:34;24.20;54.10
67050;DHT22;53955;52.442;13.284;2023-07-30T16:12:01;24.10;53.30
67050;DHT22;53955;52.442;13.284;2023-07-30T16:14:28;24.10;53.10
67050;DHT22;53955;52.442;13.284;2023-07-30T16:16:54;24.10;52.80
67050;DHT22;53955;52.442;13.284;2023-07-30T16:19:23;24.20;52.70
67050;DHT22;53955;52.442;13.284;2023-07-30T16:21:50;24.30;51.10
67050;DHT22;53955;52.442;13.284;2023-07-30T16:24:17;24.20;52.70
67050;DHT22;53955;52.442;13.284;2023-07-30T16:26:44;24.20;52.20
67050;DHT22;53955;52.442;13.284;2023-07-30T16:29:11;24.00;53.50
67050;DHT22;53955;52.442;13.284;2023-07-30T16:31:38;24.10;53.20
67050;DHT22;53955;52.442;13.284;2023-07-30T16:34:05;24.20;51.60
67050;DHT22;53955;52.442;13.284;2023-07-30T16:36:34;24.40;51.60
67050;DHT22;53955;52.442;13.284;2023-07-30T16:39:01;24.40;51.50
67050;DHT22;53955;52.442;13.284;2023-07-30T16:41:29;24.60;50.70
67050;DHT22;53955;52.442;13.284;2023-07-30T16:43:56;24.60;49.30
67050;DHT22;53955;52.442;13.284;2023-07-30T16:46:23;24.70;48.90
67050;DHT22;53955;52.442;13.284;2023-07-30T16:48:50;24.70;48.40
67050;DHT22;53955;52.442;13.284;2023-07-30T16:51:16;24.70;47.60
67050;DHT22;53955;52.442;13.284;2023-07-30T16:53:44;24.60;47.70